Greenville, SC (29602)

1:45 PM EST on December 18, 2014 (GMT -0500)
Woodmont Middle School | Change Station
CLOSE
Current Station
Personal Weather Station
Location: Piedmont, SC
Elevation: 865 ft
Nearby Weather Stations

Elev 865 ft 34.69 °N, 82.41 °W | Updated 7 seconds ago

Clear
Clear
56.1 °F
Feels Like 56.1 °F
N
0.0
Wind Variable Wind from ESE
Gusts 2.0 mph

Today
High -- | Low -- °F
--% Chance of Precip.
Yesterday
High -- | Low -- °F
Precip. -- in
7:31 AM 5:21 PM
Waning Crescent, 13% visible
Pressure 30.12 in
Visibility 10.0 miles
Clouds Clear
Dew Point 32 °F
Humidity 40%
Rainfall 0.00 in
Snow Depth Not available.
UV 2.3 out of 12
Pollen 1.40 out of 12
Air Quality Not available.
Flu Activity Not available.
METAR KGYH 181747Z 16006KT 10SM CLR 12/M08 A3012

More Conditions Fewer Conditions

Pressure 30.12 in
Visibility 10.0 miles
Clouds Clear
Dew Point 32 °F
Humidity 40%
Rainfall 0.00 in
Snow Depth Not available.
UV 2.3 out of 12
Pollen 1.40 out of 12
Air Quality Not available.
Flu Activity Not available.
METAR KGYH 181747Z 16006KT 10SM CLR 12/M08 A3012

More Conditions Fewer Conditions

10-Day Weather Forecast

Almanac

Astronomy

Dec. 18, 2014 Rise Set
Actual Time
Civil Twilight
Nautical Twilight
Astronomical Twilight
Moon
Length of Visible Light
Length of Day
Tomorrow will be .
, % of the Moon is Illuminated

Today's Extremes

State Highs State Lows

Community

WunderPhotos

Upload Photos

1,778,974 photos uploaded!

WunderBlogs® & News

Nearby

Air Quality

  Air Quality AQ Index Pollutant
Not available.

Snow Depth

Station Depth Elevation

Earthquake Activity

City Distance Mag. Time & Date
Minimum magnitude displayed is 2.5.

Coastal Water Temperatures

Place Temperature

Nearby Weather Stations